Latest Coastal Weather Observations for Hopetoun North

IDW60701

Issued at 6:53 pm WST Sunday 9 August 2020 (issued every 10 minutes, with the page automatically refreshed every 10 minutes)

About coastal observations | Map of coastal stations | Coastal observations for WA | Marine services | Other Formats
Station Details ID: 009961 Name: HOPETOUN NORTH Lat: -33.93 Lon: 120.13 Height: 26.0 m
Data from the previous 72 hours. | See also: Recent months at Hopetoun North
Date/Time
WST
Wind Sea
Height
m
Swell Vis
km
Cloud Weather Temp
°C
Press
hPa
Rain since
9am
mm
Dir  Spd
kts
Gust
kts
Height
m
Period
s
Dir
09/06:30pm NNE 9 12 - - - - - - - 11.2 1002.1 1.2
09/06:00pm NNE 13 18 - - - - - - Recent precip. 11.4 1001.5 1.2
09/05:30pm NNE 14 20 - - - - - - - 11.1 1002.2 1.2
09/05:00pm NNE 16 24 - - - - - - - 11.7 1002.7 0.6
09/04:30pm N 14 23 - - - - - - - 12.4 1002.8 0.6
09/04:02pm N 17 27 - - - - - - - 13.7 1003.0 0.4
09/04:00pm N 17 23 - - - - - - - 13.6 1003.1 0.4
09/03:45pm NNE 15 26 - - - - - - - 13.7 1002.9 0.4
09/03:30pm NNE 15 22 - - - - - - - 13.7 1003.1 0.4
09/03:02pm N 16 29 - - - - - - - 14.0 1003.0 0.2
09/03:00pm N 16 26 - - - - - - - 14.0 1003.4 0.2
09/02:31pm NNE 15 27 - - - - - - - 16.3 1003.0 0.2
09/02:30pm NNE 15 23 - - - - - - - 16.3 1002.9 0.2
09/02:00pm NNE 19 27 - - - - - - - 16.0 1002.9 0.2
09/01:52pm NNE 16 27 - - - - - - - 16.4 1002.8 0.2
09/01:30pm NNE 16 23 - - - - - - - 16.3 1001.3 0.2
09/01:00pm NNE 18 28 - - - - - - - 16.0 1002.0 0.2
09/12:30pm NE 17 27 - - - - - - - 14.4 1002.2 0.2
09/12:08pm NNE 18 28 - - - - - - - 14.2 1004.0 0.2
09/12:00pm NNE 17 25 - - - - - - - 13.9 1004.6 0.2
09/11:30am NNE 16 25 - - - - - - - 12.9 1006.5 0.2
09/11:00am NNE 17 23 - - - - - - - 12.3 1007.9 0.2
09/10:30am NNE 20 27 - - - - - - - 11.7 1008.3 0.2
09/10:18am NNE 19 31 - - - - - - - 11.5 1008.9 0.2
09/10:00am NE 20 29 - - - - - - - 11.3 1008.4 0.2
09/09:35am NE 18 30 - - - - - - - 10.1 1009.1 0.2
09/09:30am NNE 19 27 - - - - - - - 10.0 1009.5 0.2
09/09:06am NNE 17 32 - - - - - - - 11.1 1010.3 0.0
09/09:00am NNE 16 25 - - - - - - - 10.7 1010.8 0.0
09/08:30am NNE 17 24 - - - - - - - 11.6 1010.4 0.0
09/08:00am NNE 20 26 - - - - - - - 12.1 1010.7 0.0
09/07:30am NNE 17 27 - - - - - - - 12.0 1010.6 0.0
09/07:01am NNE 20 30 - - - - - - - 11.6 1010.5 0.0
09/07:00am NNE 20 29 - - - - - - - 11.6 1010.5 0.0
09/06:35am NNE 16 27 - - - - - - - 11.5 1010.7 0.0
09/06:30am NNE 15 22 - - - - - - - 11.4 1010.8 0.0
09/06:19am NNE 15 26 - - - - - - - 11.4 1011.2 0.0
09/06:00am NNE 13 21 - - - - - - - 11.2 1011.2 0.0
09/05:30am NE 12 17 - - - - - - - 10.5 1011.4 0.0
09/05:00am NE 9 12 - - - - - - - 9.1 1012.5 0.0
09/04:30am NE 13 19 - - - - - - - 9.4 1012.7 0.0
09/04:00am NE 14 21 - - - - - - - 9.1 1012.9 0.0
09/03:30am NE 14 20 - - - - - - - 9.0 1013.5 0.0
09/03:00am NE 15 22 - - - - - - - 9.2 1013.9 0.0
09/02:30am NE 14 21 - - - - - - - 8.8 1014.4 0.0
09/02:00am ENE 12 17 - - - - - - - 8.0 1015.2 0.0
09/01:30am ENE 9 12 - - - - - - - 7.3 1016.1 0.0
09/01:00am NE 10 13 - - - - - - - 7.2 1016.1 0.0
09/12:30am NE 8 11 - - - - - - - 7.1 1016.4 0.0
09/12:00am ENE 6 8 - - - - - - - 7.1 1016.5 0.0
 
Date/Time
WST
Wind Sea
Height
m
Swell Vis
km
Cloud Weather Temp
°C
Press
hPa
Rain since
9am
mm
Dir  Spd
kts
Gust
kts
Height
m
Period
s
Dir
08/11:30pm NE 10 14 - - - - - - - 8.3 1016.6 0.0
08/11:00pm NE 9 11 - - - - - - - 8.6 1017.2 0.0
08/10:30pm NE 10 14 - - - - - - - 8.9 1017.4 0.0
08/10:00pm NE 10 13 - - - - - - - 8.9 1017.7 0.0
08/09:30pm NE 9 11 - - - - - - - 8.7 1018.1 0.0
08/09:00pm NE 8 11 - - - - - - - 8.6 1018.2 0.0
08/08:30pm NE 8 9 - - - - - - - 8.1 1017.9 0.0
08/08:00pm NE 7 11 - - - - - - - 9.4 1017.9 0.0
08/07:30pm NE 8 11 - - - - - - - 10.6 1017.9 0.0
08/07:00pm ENE 10 14 - - - - - - - 11.2 1017.9 0.0
08/06:30pm ENE 10 14 - - - - - - - 11.6 1017.8 0.0
08/06:00pm ENE 9 12 - - - - - - - 12.1 1017.6 0.0
08/05:30pm ENE 11 15 - - - - - - - 13.4 1017.5 0.0
08/05:00pm ENE 11 17 - - - - - - - 14.7 1017.6 0.0
08/04:30pm ENE 11 16 - - - - - - - 15.7 1017.7 0.0
08/04:00pm ENE 13 23 - - - - - - - 16.4 1017.8 0.0
08/03:30pm ENE 16 23 - - - - - - - 16.4 1018.0 0.0
08/03:00pm ENE 17 23 - - - - - - - 16.6 1018.4 0.0
08/02:30pm ENE 14 20 - - - - - - - 16.4 1018.6 0.0
08/02:00pm ENE 14 22 - - - - - - - 16.4 1019.0 0.0
08/01:30pm NE 14 20 - - - - - - - 16.1 1019.6 0.0
08/01:00pm ENE 15 21 - - - - - - - 15.6 1020.3 0.0
08/12:30pm NE 13 20 - - - - - - - 15.4 1021.2 0.0
08/12:00pm NE 13 19 - - - - - - - 15.0 1022.0 0.0
08/11:30am NE 12 19 - - - - - - - 14.4 1022.8 0.0
08/11:00am NE 13 20 - - - - - - - 14.3 1023.3 0.0
08/10:30am NE 11 15 - - - - - - - 13.7 1023.8 0.0
08/10:00am NE 12 17 - - - - - - - 12.4 1024.3 0.0
08/09:30am NNE 11 15 - - - - - - - 11.9 1024.4 0.0
08/09:00am NNE 8 12 - - - - - - - 10.5 1024.6 0.4
08/08:30am NNE 7 10 - - - - - - - 8.7 1024.8 0.4
08/08:00am NNE 7 11 - - - - - - - 7.3 1024.7 0.4
08/07:30am NNE 6 10 - - - - - - - 6.1 1024.5 0.4
08/07:00am NNE 7 9 - - - - - - - 5.4 1024.3 0.4
08/06:30am NNE 6 7 - - - - - - - 5.3 1024.2 0.4
08/06:00am N 6 9 - - - - - - - 5.5 1023.9 0.4
08/05:30am NNE 5 7 - - - - - - - 5.6 1023.7 0.4
08/05:00am NNE 7 9 - - - - - - - 5.8 1023.6 0.4
08/04:30am NNE 7 10 - - - - - - - 5.5 1023.6 0.4
08/04:00am NNE 6 8 - - - - - - - 5.3 1023.5 0.4
08/03:30am NNE 7 9 - - - - - - - 5.7 1023.3 0.4
08/03:00am NNE 6 7 - - - - - - - 5.1 1023.4 0.4
08/02:30am NNE 6 7 - - - - - - - 5.2 1023.6 0.4
08/02:00am NNE 5 7 - - - - - - - 6.2 1023.8 0.4
08/01:30am NNE 5 7 - - - - - - - 6.3 1023.9 0.4
08/01:00am NNE 5 6 - - - - - - - 5.6 1024.2 0.4
08/12:30am NE 6 6 - - - - - - - 6.0 1024.3 0.4
08/12:00am NNE 6 9 - - - - - - - 6.6 1024.4 0.4
 
Date/Time
WST
Wind Sea
Height
m
Swell Vis
km
Cloud Weather Temp
°C
Press
hPa
Rain since
9am
mm
Dir  Spd
kts
Gust
kts
Height
m
Period
s
Dir
07/11:30pm NE 6 7 - - - - - - - 6.4 1024.8 0.4
07/11:00pm NE 5 6 - - - - - - - 7.3 1024.8 0.4
07/10:30pm NNE 3 4 - - - - - - - 7.3 1024.9 0.4
07/10:00pm NE 5 6 - - - - - - - 7.6 1025.0 0.4
07/09:30pm NE 5 5 - - - - - - - 7.4 1025.1 0.4
07/09:00pm NE 4 5 - - - - - - Rain 8.1 1025.1 0.4
07/08:30pm NE 4 5 - - - - - - - 8.5 1025.0 0.2
07/08:00pm NE 4 5 - - - - - - - 9.2 1024.9 0.2
07/07:30pm NE 4 5 - - - - - - - 9.9 1024.9 0.2
07/07:00pm NE 4 5 - - - - - - - 10.1 1024.6 0.2
07/06:30pm NE 3 4 - - - - - - - 10.1 1024.7 0.2
07/06:00pm ENE 4 5 - - - - - - - 10.8 1024.4 0.2
07/05:30pm E 5 6 - - - - - - - 11.6 1024.2 0.2
07/05:00pm ESE 5 8 - - - - - - - 12.9 1024.2 0.2
07/04:30pm ESE 6 9 - - - - - - - 13.5 1024.2 0.2
07/04:00pm ESE 6 10 - - - - - - - 13.8 1024.4 0.2
07/03:30pm ESE 7 9 - - - - - - - 13.8 1024.3 0.2
07/03:00pm ESE 9 13 - - - - - - - 13.4 1024.4 0.2
07/02:30pm SE 9 15 - - - - - - - 13.8 1024.3 0.2
07/02:00pm SE 6 10 - - - - - - - 14.4 1024.4 0.2
07/01:30pm ESE 3 6 - - - - - - - 12.1 1024.4 0.2
07/01:00pm ESE 6 15 - - - - - - - 13.8 1024.6 0.0
07/12:30pm CALM 0 1 - - - - - - - 12.7 1025.1 0.0
07/12:00pm SSE 8 12 - - - - - - - 12.1 1025.7 0.0
07/11:30am SW 4 6 - - - - - - - 13.6 1025.8 0.0
07/11:00am SW 2 5 - - - - - - - 13.4 1026.1 0.0
07/10:30am CALM 0 0 - - - - - - - 13.3 1026.5 0.0
07/10:00am NW 2 3 - - - - - - - 11.8 1026.8 0.0
07/09:30am N 2 4 - - - - - - - 11.3 1026.9 0.0
07/09:00am N 2 3 - - - - - - - 10.5 1027.0 3.2
07/08:30am NW 3 5 - - - - - - - 10.4 1026.9 3.2
07/08:00am NW 3 4 - - - - - - - 10.8 1027.1 3.2
07/07:30am NNW 2 3 - - - - - - - 9.6 1027.1 3.0
07/07:00am N 2 4 - - - - - - - 9.4 1026.9 2.4
07/06:30am NNW 4 5 - - - - - - - 9.3 1026.4 1.4
07/06:00am NNW 2 4 - - - - - - - 9.6 1026.5 1.2
07/05:30am NNW 4 5 - - - - - - - 9.7 1026.4 1.2
07/05:00am N 3 4 - - - - - - - 9.8 1026.3 1.2
07/04:30am NE 4 6 - - - - - - - 10.2 1025.9 1.2
07/04:00am SE 7 11 - - - - - - - 11.4 1025.6 0.8
07/03:30am SE 5 7 - - - - - - - 11.0 1025.4 0.8
07/03:00am SE 5 8 - - - - - - - 11.2 1025.4 0.8
07/02:30am SE 6 9 - - - - - - - 11.7 1025.3 0.8
07/02:00am SE 2 4 - - - - - - - 10.4 1025.4 0.8
07/01:30am E 3 5 - - - - - - - 10.7 1025.6 0.8
07/01:00am S 8 13 - - - - - - - 10.8 1026.0 0.6
07/12:30am SE 6 9 - - - - - - - 11.4 1025.9 0.6
07/12:00am S 6 9 - - - - - - Rain 11.2 1026.1 0.6
 
Date/Time
WST
Wind Sea
Height
m
Swell Vis
km
Cloud Weather Temp
°C
Press
hPa
Rain since
9am
mm
Dir  Spd
kts
Gust
kts
Height
m
Period
s
Dir
06/11:30pm S 7 11 - - - - - - - 11.5 1026.2 0.2
06/11:00pm S 8 14 - - - - - - - 11.5 1026.5 0.2
06/10:30pm SSW 10 14 - - - - - - - 11.8 1026.8 0.2
06/10:00pm S 9 13 - - - - - - - 12.4 1027.0 0.2
06/09:30pm S 7 13 - - - - - - - 12.9 1027.2 0.2
06/09:00pm SSE 7 9 - - - - - - - 12.7 1027.3 0.2
06/08:30pm S 7 12 - - - - - - - 12.6 1027.3 0.2
06/08:00pm S 9 14 - - - - - - - 12.5 1027.0 0.2
06/07:30pm S 9 15 - - - - - - - 12.8 1026.8 0.2
06/07:00pm SSE 10 15 - - - - - - - 12.3 1026.8 0.2

Other formats

Comma delimited format used in spreadsheet applications
http://www.bom.gov.au/fwo/IDW60701/IDW60701.95635.axf

JavaScript Object Notation format (JSON) in row-major order
http://www.bom.gov.au/fwo/IDW60701/IDW60701.95635.json

Data quality

Most of these data are generated automatically and are frequently updated. Quality checks on data are not normally performed. It is possible for incorrect values to appear. Refer to information at About Latest Weather Observations and please check the disclaimer before using these data.